sensor_id;sensor_type;location;lat;lon;timestamp;P1;durP1;ratioP1;P2;durP2;ratioP2
12222;SDS011;6174;49.058;8.524;2022-10-03T04:01:08;6.33;;;5.53;;
12222;SDS011;6174;49.058;8.524;2022-10-03T04:03:52;8.33;;;5.47;;
12222;SDS011;6174;49.058;8.524;2022-10-03T04:06:32;6.67;;;5.00;;
12222;SDS011;6174;49.058;8.524;2022-10-03T04:09:15;7.20;;;5.80;;
12222;SDS011;6174;49.058;8.524;2022-10-03T04:12:08;6.77;;;5.57;;
12222;SDS011;6174;49.058;8.524;2022-10-03T04:14:49;6.20;;;5.60;;
12222;SDS011;6174;49.058;8.524;2022-10-03T04:17:49;6.90;;;5.77;;
12222;SDS011;6174;49.058;8.524;2022-10-03T04:20:46;6.20;;;5.60;;
12222;SDS011;6174;49.058;8.524;2022-10-03T04:23:28;8.43;;;5.27;;
12222;SDS011;6174;49.058;8.524;2022-10-03T04:26:10;6.10;;;5.50;;
12222;SDS011;6174;49.058;8.524;2022-10-03T04:31:49;9.80;;;5.60;;
12222;SDS011;6174;49.058;8.524;2022-10-03T04:34:31;6.13;;;5.53;;
12222;SDS011;6174;49.058;8.524;2022-10-03T04:37:11;6.30;;;5.70;;
12222;SDS011;6174;49.058;8.524;2022-10-03T04:39:51;6.40;;;5.70;;
12222;SDS011;6174;49.058;8.524;2022-10-03T04:42:30;5.77;;;5.10;;
12222;SDS011;6174;49.058;8.524;2022-10-03T04:45:13;6.30;;;5.10;;
12222;SDS011;6174;49.058;8.524;2022-10-03T04:47:54;5.00;;;4.50;;
12222;SDS011;6174;49.058;8.524;2022-10-03T04:50:32;5.40;;;4.70;;
12222;SDS011;6174;49.058;8.524;2022-10-03T04:53:09;6.13;;;5.00;;
12222;SDS011;6174;49.058;8.524;2022-10-03T04:55:45;8.47;;;5.57;;
12222;SDS011;6174;49.058;8.524;2022-10-03T04:58:16;6.37;;;5.40;;
12222;SDS011;6174;49.058;8.524;2022-10-03T05:00:56;9.07;;;5.40;;
12222;SDS011;6174;49.058;8.524;2022-10-03T05:03:32;6.13;;;4.90;;
12222;SDS011;6174;49.058;8.524;2022-10-03T05:06:14;5.10;;;4.70;;
12222;SDS011;6174;49.058;8.524;2022-10-03T05:09:00;6.00;;;5.40;;
12222;SDS011;6174;49.058;8.524;2022-10-03T05:11:36;4.90;;;4.50;;
12222;SDS011;6174;49.058;8.524;2022-10-03T05:14:16;5.33;;;4.83;;
12222;SDS011;6174;49.058;8.524;2022-10-03T05:16:48;5.47;;;4.97;;
12222;SDS011;6174;49.058;8.524;2022-10-03T05:19:28;5.17;;;4.67;;
12222;SDS011;6174;49.058;8.524;2022-10-03T05:22:09;6.10;;;5.17;;
12222;SDS011;6174;49.058;8.524;2022-10-03T05:24:48;5.33;;;4.73;;
12222;SDS011;6174;49.058;8.524;2022-10-03T05:27:23;5.17;;;4.67;;
12222;SDS011;6174;49.058;8.524;2022-10-03T05:29:58;7.57;;;5.80;;
12222;SDS011;6174;49.058;8.524;2022-10-03T05:32:32;9.33;;;5.03;;
12222;SDS011;6174;49.058;8.524;2022-10-03T05:35:12;5.47;;;4.90;;
12222;SDS011;6174;49.058;8.524;2022-10-03T05:37:58;4.53;;;4.07;;
12222;SDS011;6174;49.058;8.524;2022-10-03T05:40:40;5.27;;;4.63;;
12222;SDS011;6174;49.058;8.524;2022-10-03T05:43:19;4.30;;;4.00;;
12222;SDS011;6174;49.058;8.524;2022-10-03T05:45:53;8.63;;;4.33;;
12222;SDS011;6174;49.058;8.524;2022-10-03T05:48:30;3.90;;;3.50;;
12222;SDS011;6174;49.058;8.524;2022-10-03T05:51:21;6.03;;;3.70;;
12222;SDS011;6174;49.058;8.524;2022-10-03T05:54:15;4.43;;;3.80;;
12222;SDS011;6174;49.058;8.524;2022-10-03T06:00:15;6.03;;;4.70;;
12222;SDS011;6174;49.058;8.524;2022-10-03T06:05:53;12.40;;;8.43;;
12222;SDS011;6174;49.058;8.524;2022-10-03T06:08:53;10.47;;;7.83;;
12222;SDS011;6174;49.058;8.524;2022-10-03T06:11:46;8.93;;;7.00;;
12222;SDS011;6174;49.058;8.524;2022-10-03T06:14:40;9.30;;;7.30;;
12222;SDS011;6174;49.058;8.524;2022-10-03T06:20:20;9.83;;;6.83;;
12222;SDS011;6174;49.058;8.524;2022-10-03T06:23:16;4.67;;;3.80;;
12222;SDS011;6174;49.058;8.524;2022-10-03T06:26:11;3.30;;;2.83;;
12222;SDS011;6174;49.058;8.524;2022-10-03T06:29:03;3.00;;;2.80;;
12222;SDS011;6174;49.058;8.524;2022-10-03T06:32:04;4.17;;;3.03;;
12222;SDS011;6174;49.058;8.524;2022-10-03T06:38:20;4.57;;;3.20;;
12222;SDS011;6174;49.058;8.524;2022-10-03T06:41:13;3.97;;;3.50;;
12222;SDS011;6174;49.058;8.524;2022-10-03T06:44:21;6.70;;;5.07;;
12222;SDS011;6174;49.058;8.524;2022-10-03T06:47:13;5.20;;;4.70;;
12222;SDS011;6174;49.058;8.524;2022-10-03T06:53:08;6.43;;;5.30;;
12222;SDS011;6174;49.058;8.524;2022-10-03T06:56:02;9.53;;;8.10;;
12222;SDS011;6174;49.058;8.524;2022-10-03T06:58:52;12.00;;;11.00;;
12222;SDS011;6174;49.058;8.524;2022-10-03T07:07:55;2.90;;;2.70;;
12222;SDS011;6174;49.058;8.524;2022-10-03T07:13:48;5.03;;;4.67;;
12222;SDS011;6174;49.058;8.524;2022-10-03T07:16:51;4.70;;;4.40;;
12222;SDS011;6174;49.058;8.524;2022-10-03T07:19:51;5.70;;;3.30;;
12222;SDS011;6174;49.058;8.524;2022-10-03T07:29:01;4.93;;;4.53;;
12222;SDS011;6174;49.058;8.524;2022-10-03T07:31:41;5.37;;;4.87;;
12222;SDS011;6174;49.058;8.524;2022-10-03T07:34:25;5.47;;;4.87;;
12222;SDS011;6174;49.058;8.524;2022-10-03T07:37:26;7.33;;;5.43;;
12222;SDS011;6174;49.058;8.524;2022-10-03T07:40:37;6.03;;;5.43;;
12222;SDS011;6174;49.058;8.524;2022-10-03T07:43:30;5.67;;;5.17;;
12222;SDS011;6174;49.058;8.524;2022-10-03T07:46:37;7.23;;;5.47;;
12222;SDS011;6174;49.058;8.524;2022-10-03T07:52:24;7.47;;;6.77;;
12222;SDS011;6174;49.058;8.524;2022-10-03T07:55:16;7.27;;;6.57;;
12222;SDS011;6174;49.058;8.524;2022-10-03T07:57:56;9.30;;;7.13;;
12222;SDS011;6174;49.058;8.524;2022-10-03T08:00:47;8.00;;;7.20;;
12222;SDS011;6174;49.058;8.524;2022-10-03T08:03:50;9.63;;;7.63;;
12222;SDS011;6174;49.058;8.524;2022-10-03T08:06:42;10.33;;;9.27;;
12222;SDS011;6174;49.058;8.524;2022-10-03T08:15:09;16.07;;;11.67;;
12222;SDS011;6174;49.058;8.524;2022-10-03T08:17:51;17.20;;;12.07;;
12222;SDS011;6174;49.058;8.524;2022-10-03T08:20:50;19.63;;;15.87;;
12222;SDS011;6174;49.058;8.524;2022-10-03T08:23:28;15.00;;;13.50;;
12222;SDS011;6174;49.058;8.524;2022-10-03T08:26:24;19.80;;;13.93;;
12222;SDS011;6174;49.058;8.524;2022-10-03T08:29:13;15.50;;;13.83;;
12222;SDS011;6174;49.058;8.524;2022-10-03T08:31:56;19.23;;;15.07;;
12222;SDS011;6174;49.058;8.524;2022-10-03T08:34:49;23.53;;;15.60;;
12222;SDS011;6174;49.058;8.524;2022-10-03T08:40:55;21.93;;;16.33;;
12222;SDS011;6174;49.058;8.524;2022-10-03T08:46:56;21.47;;;16.00;;
12222;SDS011;6174;49.058;8.524;2022-10-03T08:50:04;18.10;;;14.03;;
12222;SDS011;6174;49.058;8.524;2022-10-03T08:52:46;21.70;;;15.47;;
12222;SDS011;6174;49.058;8.524;2022-10-03T08:55:44;19.53;;;14.73;;
12222;SDS011;6174;49.058;8.524;2022-10-03T08:58:35;20.10;;;14.17;;
12222;SDS011;6174;49.058;8.524;2022-10-03T09:10:33;18.80;;;13.10;;
12222;SDS011;6174;49.058;8.524;2022-10-03T09:13:13;17.40;;;13.70;;
12222;SDS011;6174;49.058;8.524;2022-10-03T09:16:16;26.20;;;16.37;;
12222;SDS011;6174;49.058;8.524;2022-10-03T09:25:24;21.90;;;13.47;;
12222;SDS011;6174;49.058;8.524;2022-10-03T09:28:17;16.60;;;13.33;;
12222;SDS011;6174;49.058;8.524;2022-10-03T09:31:14;19.10;;;13.80;;
12222;SDS011;6174;49.058;8.524;2022-10-03T09:34:11;16.67;;;13.10;;
12222;SDS011;6174;49.058;8.524;2022-10-03T09:37:13;14.90;;;13.37;;
12222;SDS011;6174;49.058;8.524;2022-10-03T09:43:36;17.90;;;12.03;;
12222;SDS011;6174;49.058;8.524;2022-10-03T09:52:43;13.07;;;10.63;;
12222;SDS011;6174;49.058;8.524;2022-10-03T09:55:33;12.67;;;9.77;;
12222;SDS011;6174;49.058;8.524;2022-10-03T09:58:14;12.43;;;9.93;;
12222;SDS011;6174;49.058;8.524;2022-10-03T10:01:17;10.70;;;9.13;;
12222;SDS011;6174;49.058;8.524;2022-10-03T10:10:01;13.77;;;8.60;;
12222;SDS011;6174;49.058;8.524;2022-10-03T10:13:00;14.67;;;8.93;;
12222;SDS011;6174;49.058;8.524;2022-10-03T10:18:26;14.23;;;8.93;;
12222;SDS011;6174;49.058;8.524;2022-10-03T10:21:34;11.87;;;9.53;;
12222;SDS011;6174;49.058;8.524;2022-10-03T10:36:47;11.03;;;6.93;;
12222;SDS011;6174;49.058;8.524;2022-10-03T10:45:54;12.13;;;6.87;;
12222;SDS011;6174;49.058;8.524;2022-10-03T10:55:35;13.13;;;6.40;;
12222;SDS011;6174;49.058;8.524;2022-10-03T11:01:44;9.07;;;6.27;;
12222;SDS011;6174;49.058;8.524;2022-10-03T11:11:23;7.93;;;4.83;;
12222;SDS011;6174;49.058;8.524;2022-10-03T11:14:36;7.57;;;4.80;;
12222;SDS011;6174;49.058;8.524;2022-10-03T11:17:39;7.80;;;4.43;;
12222;SDS011;6174;49.058;8.524;2022-10-03T11:23:45;6.03;;;4.00;;
12222;SDS011;6174;49.058;8.524;2022-10-03T11:26:40;8.60;;;3.93;;
12222;SDS011;6174;49.058;8.524;2022-10-03T11:29:54;6.17;;;3.70;;
12222;SDS011;6174;49.058;8.524;2022-10-03T11:36:10;7.33;;;3.90;;
12222;SDS011;6174;49.058;8.524;2022-10-03T11:39:13;7.07;;;4.27;;
12222;SDS011;6174;49.058;8.524;2022-10-03T11:41:49;6.63;;;4.07;;
12222;SDS011;6174;49.058;8.524;2022-10-03T11:44:22;7.17;;;3.80;;
12222;SDS011;6174;49.058;8.524;2022-10-03T11:53:14;6.87;;;3.23;;
12222;SDS011;6174;49.058;8.524;2022-10-03T11:56:02;6.53;;;3.30;;
12222;SDS011;6174;49.058;8.524;2022-10-03T11:58:49;7.40;;;3.47;;
12222;SDS011;6174;49.058;8.524;2022-10-03T12:01:28;5.97;;;3.40;;
12222;SDS011;6174;49.058;8.524;2022-10-03T12:04:07;5.57;;;3.53;;
12222;SDS011;6174;49.058;8.524;2022-10-03T12:06:47;6.03;;;3.40;;
12222;SDS011;6174;49.058;8.524;2022-10-03T12:09:43;10.80;;;3.80;;
12222;SDS011;6174;49.058;8.524;2022-10-03T12:12:20;5.97;;;3.23;;
12222;SDS011;6174;49.058;8.524;2022-10-03T12:14:55;7.50;;;3.80;;
12222;SDS011;6174;49.058;8.524;2022-10-03T12:17:27;5.23;;;3.90;;
12222;SDS011;6174;49.058;8.524;2022-10-03T12:19:59;5.40;;;3.90;;
12222;SDS011;6174;49.058;8.524;2022-10-03T12:22:35;4.93;;;3.63;;
12222;SDS011;6174;49.058;8.524;2022-10-03T12:25:17;7.57;;;3.90;;
12222;SDS011;6174;49.058;8.524;2022-10-03T12:27:59;5.37;;;3.97;;
12222;SDS011;6174;49.058;8.524;2022-10-03T12:30:38;5.33;;;3.67;;
12222;SDS011;6174;49.058;8.524;2022-10-03T12:33:16;5.97;;;3.50;;
12222;SDS011;6174;49.058;8.524;2022-10-03T12:36:08;5.93;;;3.33;;
12222;SDS011;6174;49.058;8.524;2022-10-03T12:38:45;8.07;;;3.77;;
12222;SDS011;6174;49.058;8.524;2022-10-03T12:41:33;5.97;;;3.97;;
12222;SDS011;6174;49.058;8.524;2022-10-03T12:44:18;4.63;;;2.80;;
12222;SDS011;6174;49.058;8.524;2022-10-03T12:46:54;6.27;;;3.30;;
12222;SDS011;6174;49.058;8.524;2022-10-03T12:49:36;4.20;;;3.20;;
12222;SDS011;6174;49.058;8.524;2022-10-03T12:52:15;7.00;;;3.23;;
12222;SDS011;6174;49.058;8.524;2022-10-03T12:54:49;6.73;;;3.43;;
12222;SDS011;6174;49.058;8.524;2022-10-03T13:00:27;4.60;;;2.87;;
12222;SDS011;6174;49.058;8.524;2022-10-03T13:05:50;4.03;;;3.10;;
12222;SDS011;6174;49.058;8.524;2022-10-03T13:08:29;4.70;;;3.43;;
12222;SDS011;6174;49.058;8.524;2022-10-03T13:11:16;4.47;;;3.13;;
12222;SDS011;6174;49.058;8.524;2022-10-03T13:13:59;5.00;;;2.93;;
12222;SDS011;6174;49.058;8.524;2022-10-03T13:16:33;7.80;;;2.97;;
12222;SDS011;6174;49.058;8.524;2022-10-03T13:19:07;6.03;;;3.27;;
12222;SDS011;6174;49.058;8.524;2022-10-03T13:21:48;3.73;;;2.80;;
12222;SDS011;6174;49.058;8.524;2022-10-03T13:24:28;4.13;;;2.97;;
12222;SDS011;6174;49.058;8.524;2022-10-03T13:27:20;5.00;;;3.30;;
12222;SDS011;6174;49.058;8.524;2022-10-03T13:29:58;5.23;;;2.93;;
12222;SDS011;6174;49.058;8.524;2022-10-03T13:32:31;4.33;;;2.77;;
12222;SDS011;6174;49.058;8.524;2022-10-03T13:35:04;6.20;;;2.67;;
12222;SDS011;6174;49.058;8.524;2022-10-03T13:38:16;4.43;;;2.63;;
12222;SDS011;6174;49.058;8.524;2022-10-03T13:41:04;6.23;;;2.90;;
12222;SDS011;6174;49.058;8.524;2022-10-03T13:43:39;4.90;;;2.90;;
12222;SDS011;6174;49.058;8.524;2022-10-03T13:46:11;5.37;;;2.93;;
12222;SDS011;6174;49.058;8.524;2022-10-03T13:48:40;4.60;;;2.77;;
12222;SDS011;6174;49.058;8.524;2022-10-03T13:51:15;6.80;;;3.00;;
12222;SDS011;6174;49.058;8.524;2022-10-03T13:53:53;6.07;;;2.87;;
12222;SDS011;6174;49.058;8.524;2022-10-03T13:56:29;5.77;;;3.37;;
12222;SDS011;6174;49.058;8.524;2022-10-03T13:59:10;4.97;;;3.00;;
12222;SDS011;6174;49.058;8.524;2022-10-03T14:01:53;4.13;;;2.90;;
12222;SDS011;6174;49.058;8.524;2022-10-03T14:04:35;3.67;;;3.00;;
12222;SDS011;6174;49.058;8.524;2022-10-03T14:07:16;4.73;;;3.10;;
12222;SDS011;6174;49.058;8.524;2022-10-03T14:10:09;4.23;;;2.50;;
12222;SDS011;6174;49.058;8.524;2022-10-03T14:13:04;5.13;;;2.63;;
12222;SDS011;6174;49.058;8.524;2022-10-03T14:15:44;5.53;;;2.60;;
12222;SDS011;6174;49.058;8.524;2022-10-03T14:18:18;5.00;;;2.30;;
12222;SDS011;6174;49.058;8.524;2022-10-03T14:27:05;3.97;;;2.83;;
12222;SDS011;6174;49.058;8.524;2022-10-03T14:29:42;4.23;;;2.53;;
12222;SDS011;6174;49.058;8.524;2022-10-03T14:32:23;3.43;;;2.17;;
12222;SDS011;6174;49.058;8.524;2022-10-03T14:34:57;4.10;;;2.03;;
12222;SDS011;6174;49.058;8.524;2022-10-03T14:37:35;2.67;;;2.00;;
12222;SDS011;6174;49.058;8.524;2022-10-03T14:40:12;5.10;;;2.30;;
12222;SDS011;6174;49.058;8.524;2022-10-03T14:42:45;3.00;;;2.37;;
12222;SDS011;6174;49.058;8.524;2022-10-03T14:45:32;4.20;;;2.50;;
12222;SDS011;6174;49.058;8.524;2022-10-03T14:48:06;4.70;;;2.73;;
12222;SDS011;6174;49.058;8.524;2022-10-03T14:50:40;5.60;;;2.80;;
12222;SDS011;6174;49.058;8.524;2022-10-03T14:53:11;5.77;;;2.57;;
12222;SDS011;6174;49.058;8.524;2022-10-03T14:55:45;4.90;;;2.83;;
12222;SDS011;6174;49.058;8.524;2022-10-03T14:58:22;2.50;;;2.30;;
12222;SDS011;6174;49.058;8.524;2022-10-03T15:00:54;2.90;;;2.50;;
12222;SDS011;6174;49.058;8.524;2022-10-03T15:03:31;5.03;;;2.70;;
12222;SDS011;6174;49.058;8.524;2022-10-03T15:08:58;4.40;;;2.37;;
12222;SDS011;6174;49.058;8.524;2022-10-03T15:11:28;4.17;;;2.40;;
12222;SDS011;6174;49.058;8.524;2022-10-03T15:13:59;2.83;;;2.40;;
12222;SDS011;6174;49.058;8.524;2022-10-03T15:16:28;3.87;;;2.60;;
12222;SDS011;6174;49.058;8.524;2022-10-03T15:19:02;3.47;;;2.33;;
12222;SDS011;6174;49.058;8.524;2022-10-03T15:21:33;4.33;;;2.30;;
12222;SDS011;6174;49.058;8.524;2022-10-03T15:24:01;6.37;;;2.70;;
12222;SDS011;6174;49.058;8.524;2022-10-03T15:26:31;5.33;;;2.80;;
12222;SDS011;6174;49.058;8.524;2022-10-03T15:29:01;3.27;;;2.50;;
12222;SDS011;6174;49.058;8.524;2022-10-03T15:31:34;4.93;;;2.90;;
12222;SDS011;6174;49.058;8.524;2022-10-03T15:34:05;4.53;;;2.93;;
12222;SDS011;6174;49.058;8.524;2022-10-03T15:36:40;4.27;;;2.63;;
12222;SDS011;6174;49.058;8.524;2022-10-03T15:39:15;3.10;;;2.53;;
12222;SDS011;6174;49.058;8.524;2022-10-03T15:41:47;4.47;;;2.50;;
12222;SDS011;6174;49.058;8.524;2022-10-03T15:44:18;5.50;;;2.60;;
12222;SDS011;6174;49.058;8.524;2022-10-03T15:46:49;3.63;;;2.40;;
12222;SDS011;6174;49.058;8.524;2022-10-03T15:49:21;4.60;;;2.73;;
12222;SDS011;6174;49.058;8.524;2022-10-03T15:51:51;5.80;;;2.80;;
12222;SDS011;6174;49.058;8.524;2022-10-03T15:54:20;4.33;;;2.60;;
12222;SDS011;6174;49.058;8.524;2022-10-03T15:56:49;3.23;;;2.37;;
12222;SDS011;6174;49.058;8.524;2022-10-03T15:59:50;4.53;;;2.43;;
12222;SDS011;6174;49.058;8.524;2022-10-03T16:02:22;4.33;;;2.40;;
12222;SDS011;6174;49.058;8.524;2022-10-03T16:04:56;4.00;;;2.73;;
12222;SDS011;6174;49.058;8.524;2022-10-03T16:07:27;6.30;;;2.77;;
12222;SDS011;6174;49.058;8.524;2022-10-03T16:10:05;5.17;;;2.73;;
12222;SDS011;6174;49.058;8.524;2022-10-03T16:12:47;5.83;;;2.60;;
12222;SDS011;6174;49.058;8.524;2022-10-03T16:15:22;3.50;;;2.60;;
12222;SDS011;6174;49.058;8.524;2022-10-03T16:17:58;2.77;;;2.20;;
12222;SDS011;6174;49.058;8.524;2022-10-03T16:20:28;3.90;;;2.63;;
12222;SDS011;6174;49.058;8.524;2022-10-03T16:23:02;4.67;;;2.77;;
12222;SDS011;6174;49.058;8.524;2022-10-03T16:25:40;6.27;;;3.37;;
12222;SDS011;6174;49.058;8.524;2022-10-03T16:28:12;5.50;;;3.00;;
12222;SDS011;6174;49.058;8.524;2022-10-03T16:30:45;6.17;;;2.90;;
12222;SDS011;6174;49.058;8.524;2022-10-03T16:33:18;6.77;;;3.83;;
12222;SDS011;6174;49.058;8.524;2022-10-03T16:35:49;4.57;;;3.30;;
12222;SDS011;6174;49.058;8.524;2022-10-03T16:38:20;6.73;;;3.90;;
12222;SDS011;6174;49.058;8.524;2022-10-03T16:40:49;6.57;;;5.63;;
12222;SDS011;6174;49.058;8.524;2022-10-03T16:43:20;6.17;;;5.57;;
12222;SDS011;6174;49.058;8.524;2022-10-03T16:45:50;8.13;;;5.93;;
12222;SDS011;6174;49.058;8.524;2022-10-03T16:48:18;7.27;;;6.67;;
12222;SDS011;6174;49.058;8.524;2022-10-03T16:51:02;7.67;;;4.83;;
12222;SDS011;6174;49.058;8.524;2022-10-03T16:53:31;5.50;;;3.40;;
12222;SDS011;6174;49.058;8.524;2022-10-03T16:56:02;5.07;;;3.50;;
12222;SDS011;6174;49.058;8.524;2022-10-03T16:58:32;6.23;;;4.20;;
12222;SDS011;6174;49.058;8.524;2022-10-03T17:01:05;5.20;;;3.30;;
12222;SDS011;6174;49.058;8.524;2022-10-03T17:03:36;4.57;;;2.87;;
12222;SDS011;6174;49.058;8.524;2022-10-03T17:06:13;4.93;;;2.93;;
12222;SDS011;6174;49.058;8.524;2022-10-03T17:08:46;6.77;;;4.23;;
12222;SDS011;6174;49.058;8.524;2022-10-03T17:11:16;3.83;;;3.43;;
12222;SDS011;6174;49.058;8.524;2022-10-03T17:13:49;4.27;;;3.30;;
12222;SDS011;6174;49.058;8.524;2022-10-03T17:16:29;4.00;;;3.50;;
12222;SDS011;6174;49.058;8.524;2022-10-03T17:19:07;4.13;;;3.20;;
12222;SDS011;6174;49.058;8.524;2022-10-03T17:21:51;4.40;;;3.00;;
12222;SDS011;6174;49.058;8.524;2022-10-03T17:24:32;3.27;;;2.97;;
12222;SDS011;6174;49.058;8.524;2022-10-03T17:27:08;5.10;;;3.50;;
12222;SDS011;6174;49.058;8.524;2022-10-03T17:29:41;4.27;;;3.17;;
12222;SDS011;6174;49.058;8.524;2022-10-03T17:32:18;4.73;;;3.23;;
12222;SDS011;6174;49.058;8.524;2022-10-03T17:34:49;2.97;;;2.77;;
12222;SDS011;6174;49.058;8.524;2022-10-03T17:37:26;5.20;;;3.50;;
12222;SDS011;6174;49.058;8.524;2022-10-03T17:40:15;3.60;;;3.00;;
12222;SDS011;6174;49.058;8.524;2022-10-03T17:42:48;6.00;;;3.50;;
12222;SDS011;6174;49.058;8.524;2022-10-03T17:45:26;6.47;;;3.53;;
12222;SDS011;6174;49.058;8.524;2022-10-03T17:48:07;5.33;;;3.60;;
12222;SDS011;6174;49.058;8.524;2022-10-03T17:50:37;4.87;;;3.40;;
12222;SDS011;6174;49.058;8.524;2022-10-03T17:53:17;7.00;;;3.80;;
12222;SDS011;6174;49.058;8.524;2022-10-03T17:55:46;8.73;;;5.63;;
12222;SDS011;6174;49.058;8.524;2022-10-03T17:58:18;9.80;;;8.80;;
12222;SDS011;6174;49.058;8.524;2022-10-03T18:00:56;13.23;;;10.00;;
12222;SDS011;6174;49.058;8.524;2022-10-03T18:03:30;10.30;;;8.33;;
12222;SDS011;6174;49.058;8.524;2022-10-03T18:06:23;7.90;;;7.10;;
12222;SDS011;6174;49.058;8.524;2022-10-03T18:09:17;7.20;;;5.97;;
12222;SDS011;6174;49.058;8.524;2022-10-03T18:11:50;5.43;;;4.93;;
12222;SDS011;6174;49.058;8.524;2022-10-03T18:14:23;8.43;;;5.40;;
12222;SDS011;6174;49.058;8.524;2022-10-03T18:17:00;6.77;;;4.97;;
12222;SDS011;6174;49.058;8.524;2022-10-03T18:19:39;9.07;;;5.80;;
12222;SDS011;6174;49.058;8.524;2022-10-03T18:22:26;8.27;;;5.83;;
12222;SDS011;6174;49.058;8.524;2022-10-03T18:24:58;16.90;;;11.50;;
12222;SDS011;6174;49.058;8.524;2022-10-03T18:30:49;10.03;;;7.53;;
12222;SDS011;6174;49.058;8.524;2022-10-03T18:33:22;10.37;;;7.57;;
12222;SDS011;6174;49.058;8.524;2022-10-03T18:35:54;7.93;;;7.13;;
12222;SDS011;6174;49.058;8.524;2022-10-03T18:38:23;9.30;;;6.97;;
12222;SDS011;6174;49.058;8.524;2022-10-03T18:40:53;9.00;;;7.23;;
12222;SDS011;6174;49.058;8.524;2022-10-03T18:43:27;12.30;;;7.10;;
12222;SDS011;6174;49.058;8.524;2022-10-03T18:48:50;17.63;;;12.87;;
12222;SDS011;6174;49.058;8.524;2022-10-03T18:51:26;6.40;;;5.67;;
12222;SDS011;6174;49.058;8.524;2022-10-03T18:53:57;9.10;;;7.57;;
12222;SDS011;6174;49.058;8.524;2022-10-03T18:56:27;11.30;;;8.10;;
12222;SDS011;6174;49.058;8.524;2022-10-03T18:59:05;9.37;;;8.23;;
12222;SDS011;6174;49.058;8.524;2022-10-03T19:01:39;7.43;;;5.27;;
12222;SDS011;6174;49.058;8.524;2022-10-03T19:04:16;5.83;;;5.20;;
12222;SDS011;6174;49.058;8.524;2022-10-03T19:06:50;7.77;;;5.90;;
12222;SDS011;6174;49.058;8.524;2022-10-03T19:09:19;6.53;;;5.80;;
12222;SDS011;6174;49.058;8.524;2022-10-03T19:11:52;8.83;;;6.80;;
12222;SDS011;6174;49.058;8.524;2022-10-03T19:14:27;8.00;;;6.40;;
12222;SDS011;6174;49.058;8.524;2022-10-03T19:17:08;8.80;;;6.10;;
12222;SDS011;6174;49.058;8.524;2022-10-03T19:19:46;7.43;;;5.77;;
12222;SDS011;6174;49.058;8.524;2022-10-03T19:22:18;8.77;;;6.17;;
12222;SDS011;6174;49.058;8.524;2022-10-03T19:24:50;7.57;;;6.30;;
12222;SDS011;6174;49.058;8.524;2022-10-03T19:27:18;9.40;;;6.47;;
12222;SDS011;6174;49.058;8.524;2022-10-03T19:29:50;7.73;;;6.70;;
12222;SDS011;6174;49.058;8.524;2022-10-03T19:32:22;9.90;;;6.87;;
12222;SDS011;6174;49.058;8.524;2022-10-03T19:34:56;7.67;;;5.30;;
12222;SDS011;6174;49.058;8.524;2022-10-03T19:37:32;8.63;;;5.60;;
12222;SDS011;6174;49.058;8.524;2022-10-03T19:40:10;9.07;;;6.13;;
12222;SDS011;6174;49.058;8.524;2022-10-03T19:42:41;8.43;;;7.37;;
12222;SDS011;6174;49.058;8.524;2022-10-03T19:45:12;7.40;;;6.70;;
12222;SDS011;6174;49.058;8.524;2022-10-03T19:47:41;6.97;;;6.20;;
12222;SDS011;6174;49.058;8.524;2022-10-03T19:50:17;8.07;;;6.00;;
12222;SDS011;6174;49.058;8.524;2022-10-03T19:52:51;7.73;;;5.10;;
12222;SDS011;6174;49.058;8.524;2022-10-03T19:55:19;6.07;;;5.43;;
12222;SDS011;6174;49.058;8.524;2022-10-03T19:57:49;9.23;;;5.90;;
12222;SDS011;6174;49.058;8.524;2022-10-03T20:00:28;9.60;;;5.70;;
12222;SDS011;6174;49.058;8.524;2022-10-03T20:03:04;7.40;;;5.70;;
12222;SDS011;6174;49.058;8.524;2022-10-03T20:05:38;5.83;;;5.23;;
12222;SDS011;6174;49.058;8.524;2022-10-03T20:08:14;8.60;;;4.87;;
12222;SDS011;6174;49.058;8.524;2022-10-03T20:10:56;7.77;;;5.00;;
12222;SDS011;6174;49.058;8.524;2022-10-03T20:13:33;7.77;;;4.80;;
12222;SDS011;6174;49.058;8.524;2022-10-03T20:16:08;7.23;;;4.63;;
12222;SDS011;6174;49.058;8.524;2022-10-03T20:18:39;5.73;;;4.53;;
12222;SDS011;6174;49.058;8.524;2022-10-03T20:21:07;7.10;;;4.70;;
12222;SDS011;6174;49.058;8.524;2022-10-03T20:23:38;4.00;;;3.53;;
12222;SDS011;6174;49.058;8.524;2022-10-03T20:26:10;4.80;;;4.30;;
12222;SDS011;6174;49.058;8.524;2022-10-03T20:31:40;12.37;;;6.77;;
12222;SDS011;6174;49.058;8.524;2022-10-03T20:34:10;10.63;;;6.57;;
12222;SDS011;6174;49.058;8.524;2022-10-03T20:36:40;6.80;;;5.20;;
12222;SDS011;6174;49.058;8.524;2022-10-03T20:39:13;5.90;;;5.30;;
12222;SDS011;6174;49.058;8.524;2022-10-03T20:41:49;7.27;;;5.33;;
12222;SDS011;6174;49.058;8.524;2022-10-03T20:44:24;7.07;;;5.10;;
12222;SDS011;6174;49.058;8.524;2022-10-03T20:47:04;6.20;;;5.20;;
12222;SDS011;6174;49.058;8.524;2022-10-03T20:49:36;6.50;;;4.97;;
12222;SDS011;6174;49.058;8.524;2022-10-03T20:52:07;6.90;;;5.03;;
12222;SDS011;6174;49.058;8.524;2022-10-03T20:54:47;7.27;;;5.67;;
12222;SDS011;6174;49.058;8.524;2022-10-03T20:57:16;7.43;;;5.43;;
12222;SDS011;6174;49.058;8.524;2022-10-03T20:59:45;6.33;;;4.90;;
12222;SDS011;6174;49.058;8.524;2022-10-03T21:02:17;5.93;;;5.17;;
12222;SDS011;6174;49.058;8.524;2022-10-03T21:04:51;6.23;;;5.63;;
12222;SDS011;6174;49.058;8.524;2022-10-03T21:07:24;6.77;;;4.50;;
12222;SDS011;6174;49.058;8.524;2022-10-03T21:09:59;6.50;;;4.90;;
12222;SDS011;6174;49.058;8.524;2022-10-03T21:12:34;5.90;;;4.97;;
12222;SDS011;6174;49.058;8.524;2022-10-03T21:15:10;7.27;;;5.37;;
12222;SDS011;6174;49.058;8.524;2022-10-03T21:17:40;7.10;;;5.20;;
12222;SDS011;6174;49.058;8.524;2022-10-03T21:20:11;5.73;;;5.00;;
12222;SDS011;6174;49.058;8.524;2022-10-03T21:22:42;5.37;;;4.87;;
12222;SDS011;6174;49.058;8.524;2022-10-03T21:25:16;7.50;;;4.80;;
12222;SDS011;6174;49.058;8.524;2022-10-03T21:27:47;5.40;;;4.87;;
12222;SDS011;6174;49.058;8.524;2022-10-03T21:30:17;7.27;;;4.50;;
12222;SDS011;6174;49.058;8.524;2022-10-03T21:32:50;6.40;;;4.60;;
12222;SDS011;6174;49.058;8.524;2022-10-03T21:35:26;7.07;;;4.93;;
12222;SDS011;6174;49.058;8.524;2022-10-03T21:37:58;5.63;;;4.70;;
12222;SDS011;6174;49.058;8.524;2022-10-03T21:40:35;7.27;;;4.40;;
12222;SDS011;6174;49.058;8.524;2022-10-03T21:43:20;6.47;;;5.00;;
12222;SDS011;6174;49.058;8.524;2022-10-03T21:46:03;7.17;;;4.70;;
12222;SDS011;6174;49.058;8.524;2022-10-03T21:48:38;6.00;;;4.97;;
12222;SDS011;6174;49.058;8.524;2022-10-03T21:51:19;6.13;;;4.77;;
12222;SDS011;6174;49.058;8.524;2022-10-03T21:53:52;5.10;;;4.53;;
12222;SDS011;6174;49.058;8.524;2022-10-03T21:56:35;5.77;;;4.80;;
12222;SDS011;6174;49.058;8.524;2022-10-03T21:59:23;5.37;;;4.77;;
